Caribbean Princess — ZCDG8 — position and weather

sailwx.info

Track history (hours):
 
Tides and Currents Weather Stations Pressure Air Temp Water Temp Dewpoint Dewpoint Depression Visibility Wind Speed Wind Dir Waves Ship Positions

Caribbean Princess

Operator: Princess Cruises

Last reported at 2016-Feb-05 22:08 UTC. Time now 2016-Feb-10 02:45 UTC.
Position N 20°39' W 086°55'.

Type: Passenger vessel. MMSI: 310423000.

Date/timePositionNaut miles runAvg speedWind from/ knotsBaromVisibWave heightAir tempDewpointWater temp
2016-Feb-05 22:08N 20°39' W 086°55'1017.4
2016-Feb-05 21:33N 20°30' W 086°59'1 0.9
2016-Feb-05 20:33N 20°29' W 086°59'0 0.0
2016-Feb-05 19:30N 20°29' W 086°59'0 0.0
2016-Feb-05 18:33N 20°29' W 086°59'0 0.0
2016-Feb-05 17:33N 20°29' W 086°59'0 0.0
2016-Feb-05 16:33N 20°29' W 086°59'0 0.0
2016-Feb-05 15:33N 20°29' W 086°59'0 0.0
2016-Feb-05 14:33N 20°29' W 086°59'0 0.0
2016-Feb-05 13:33N 20°29' W 086°59'0 0.0
2016-Feb-05 12:33N 20°29' W 086°59'0 0.2
2016-Feb-05 11:34N 20°29' W 086°59'6 6.1
2016-Feb-05 10:34N 20°24' W 087°03'  
2016-Feb-01 04:26N 28°49' W 093°54'5814.9
2016-Feb-01 00:33N 29°23' W 094°48'1312.8
2016-Jan-31 23:33N 29°34' W 094°55'5 4.5
2016-Jan-31 22:30N 29°37' W 094°60'0 0.0
2016-Jan-31 21:32N 29°37' W 094°60'0 0.0
2016-Jan-31 20:32N 29°37' W 094°60'0 0.0
2016-Jan-31 19:31N 29°37' W 094°60'0 0.0
2016-Jan-31 18:32N 29°37' W 094°60'0 0.0
2016-Jan-31 17:32N 29°37' W 094°60'0 0.0
2016-Jan-31 16:32N 29°37' W 094°60'0 0.0
2016-Jan-31 15:31N 29°37' W 094°60'0 0.0
2016-Jan-31 14:32N 29°37' W 094°60'0 0.0
2016-Jan-31 13:33N 29°37' W 094°60'0 0.0
2016-Jan-31 12:32N 29°37' W 094°60'0 0.0
2016-Jan-31 11:31N 29°37' W 094°60'0 0.0
2016-Jan-31 10:33N 29°37' W 094°60'3 2.7
2016-Jan-31 09:33N 29°36' W 094°57'1211.8
2016-Jan-31 08:33N 29°25' W 094°50'1611.3
2016-Jan-31 07:09N 29°17' W 094°34'1117.8
2016-Jan-31 06:32N 29°11' W 094°24'1919.4
2016-Jan-31 05:33N 28°60' W 094°06'2121.4
2016-Jan-31 04:33N 28°47' W 093°46'61520.9
2016-Jan-29 23:08N 20°39' W 086°54'1017.8
2016-Jan-29 22:34N 20°30' W 086°59'1 1.3
2016-Jan-29 21:32N 20°29' W 086°59'0 0.0
2016-Jan-29 20:29N 20°29' W 086°59'0 0.0
2016-Jan-29 19:32N 20°29' W 086°59'0 0.0
2016-Jan-29 18:32N 20°29' W 086°59'0 0.0
2016-Jan-29 17:32N 20°29' W 086°59'0 0.0
2016-Jan-29 16:32N 20°29' W 086°59'0 0.0
2016-Jan-29 15:32N 20°29' W 086°59'0 0.0
2016-Jan-29 14:32N 20°29' W 086°59'0 0.0
2016-Jan-29 13:32N 20°29' W 086°59'0 0.0
2016-Jan-29 12:33N 20°29' W 086°59'7 6.9
2016-Jan-29 11:34N 20°24' W 087°04'  
Track history (hours):
 
Tides and Currents Weather Stations Pressure Air Temp Water Temp Dewpoint Dewpoint Depression Visibility Wind Speed Wind Dir Waves Ship Positions

Caribbean Princess

Operator: Princess Cruises

Last reported at 2016-Feb-05 22:08 UTC. Time now 2016-Feb-10 02:45 UTC.
Position N 20°39' W 086°55'.

Type: Passenger vessel. MMSI: 310423000.

Date/timePositionNaut miles runAvg speedWind from/ knotsBaromVisibWave heightAir tempDewpointWater temp
2016-Feb-05 22:08N 20°39' W 086°55'1017.4
2016-Feb-05 21:33N 20°30' W 086°59'1 0.9
2016-Feb-05 20:33N 20°29' W 086°59'0 0.0
2016-Feb-05 19:30N 20°29' W 086°59'0 0.0
2016-Feb-05 18:33N 20°29' W 086°59'0 0.0
2016-Feb-05 17:33N 20°29' W 086°59'0 0.0
2016-Feb-05 16:33N 20°29' W 086°59'0 0.0
2016-Feb-05 15:33N 20°29' W 086°59'0 0.0
2016-Feb-05 14:33N 20°29' W 086°59'0 0.0
2016-Feb-05 13:33N 20°29' W 086°59'0 0.0
2016-Feb-05 12:33N 20°29' W 086°59'0 0.2
2016-Feb-05 11:34N 20°29' W 086°59'6 6.1
2016-Feb-05 10:34N 20°24' W 087°03'  
2016-Feb-01 04:26N 28°49' W 093°54'5814.9
2016-Feb-01 00:33N 29°23' W 094°48'1312.8
2016-Jan-31 23:33N 29°34' W 094°55'5 4.5
2016-Jan-31 22:30N 29°37' W 094°60'0 0.0
2016-Jan-31 21:32N 29°37' W 094°60'0 0.0
2016-Jan-31 20:32N 29°37' W 094°60'0 0.0
2016-Jan-31 19:31N 29°37' W 094°60'0 0.0
2016-Jan-31 18:32N 29°37' W 094°60'0 0.0
2016-Jan-31 17:32N 29°37' W 094°60'0 0.0
2016-Jan-31 16:32N 29°37' W 094°60'0 0.0
2016-Jan-31 15:31N 29°37' W 094°60'0 0.0
2016-Jan-31 14:32N 29°37' W 094°60'0 0.0
2016-Jan-31 13:33N 29°37' W 094°60'0 0.0
2016-Jan-31 12:32N 29°37' W 094°60'0 0.0
2016-Jan-31 11:31N 29°37' W 094°60'0 0.0
2016-Jan-31 10:33N 29°37' W 094°60'3 2.7
2016-Jan-31 09:33N 29°36' W 094°57'1211.8
2016-Jan-31 08:33N 29°25' W 094°50'1611.3
2016-Jan-31 07:09N 29°17' W 094°34'1117.8
2016-Jan-31 06:32N 29°11' W 094°24'1919.4
2016-Jan-31 05:33N 28°60' W 094°06'2121.4
2016-Jan-31 04:33N 28°47' W 093°46'61520.9
2016-Jan-29 23:08N 20°39' W 086°54'1017.8
2016-Jan-29 22:34N 20°30' W 086°59'1 1.3
2016-Jan-29 21:32N 20°29' W 086°59'0 0.0
2016-Jan-29 20:29N 20°29' W 086°59'0 0.0
2016-Jan-29 19:32N 20°29' W 086°59'0 0.0
2016-Jan-29 18:32N 20°29' W 086°59'0 0.0
2016-Jan-29 17:32N 20°29' W 086°59'0 0.0
2016-Jan-29 16:32N 20°29' W 086°59'0 0.0
2016-Jan-29 15:32N 20°29' W 086°59'0 0.0
2016-Jan-29 14:32N 20°29' W 086°59'0 0.0
2016-Jan-29 13:32N 20°29' W 086°59'0 0.0
2016-Jan-29 12:33N 20°29' W 086°59'7 6.9
2016-Jan-29 11:34N 20°24' W 087°04'  

Dump ship's entire track history